Time;durP1;ratioP1;P1;durP2;ratioP2;P2;SDS_P1;SDS_P2;PMS_P1;PMS_P2;Temp;Humidity;BMP_temperature;BMP_pressure;BME280_temperature;BME280_humidity;BME280_pressure;Samples;Min_cycle;Max_cycle;Signal;HPM_P1;HPM_P2
2022/04/14 00:01:18;;;;;;;52.97;19.67;;;;;;;7.89;67.16;92906.34;6108638;23;20017;-92
2022/04/14 00:04:01;;;;;;;;;;;;;;;;;;;;;
2022/04/14 00:06:59;;;;;;;46.33;19.23;;;;;;;7.87;66.81;92905.81;6134143;23;20458;-92
2022/04/14 00:09:42;;;;;;;45.60;18.48;;;;;;;7.85;67.43;92907.13;6130072;23;20025;-92
2022/04/14 00:12:34;;;;;;;48.00;19.17;;;;;;;7.78;67.68;92899.56;6106828;23;20037;-93
2022/04/14 00:15:12;;;;;;;;;;;;;;;;;;;;;
2022/04/14 00:18:01;;;;;;;;;;;;;;;;;;;;;
2022/04/14 00:20:35;;;;;;;42.42;19.38;;;;;;;7.67;68.37;92884.94;6108240;23;20024;-92
2022/04/14 00:23:22;;;;;;;48.90;19.92;;;;;;;7.70;67.88;92893.03;6133691;23;20109;-91
2022/04/14 00:26:10;;;;;;;45.95;18.98;;;;;;;7.64;68.56;92883.63;6108553;23;20533;-93
2022/04/14 00:29:16;;;;;;;;;;;;;;;;;;;;;
2022/04/14 00:31:52;;;;;;;45.58;18.80;;;;;;;7.57;69.23;92883.13;6113891;23;20018;-92
2022/04/14 00:34:36;;;;;;;47.17;19.42;;;;;;;7.60;69.21;92887.03;6154815;23;20093;-92
2022/04/14 00:37:40;;;;;;;;;;;;;;;;;;;;;
2022/04/14 00:40:22;;;;;;;47.53;20.00;;;;;;;7.66;69.42;92912.06;6154411;23;20388;-92
2022/04/14 00:43:04;;;;;;;51.10;19.63;;;;;;;7.70;69.38;92918.28;6129891;23;20610;-92
2022/04/14 00:45:49;;;;;;;46.25;19.35;;;;;;;7.67;69.38;92909.16;6154607;23;20073;-92
2022/04/14 00:48:25;;;;;;;50.35;19.88;;;;;;;7.51;69.58;92892.72;6154564;23;20019;-93
2022/04/14 00:51:11;;;;;;;;;;;;;;;;;;;;;
2022/04/14 00:54:05;;;;;;;45.08;19.27;;;;;;;7.82;69.10;92937.09;6134669;23;20018;-92
2022/04/14 00:57:01;;;;;;;49.38;19.50;;;;;;;7.40;69.48;92879.94;6129639;23;20017;-92
2022/04/14 00:59:48;;;;;;;51.35;19.67;;;;;;;7.35;69.93;92866.91;6131627;23;20028;-92
2022/04/14 01:02:47;;;;;;;50.00;20.10;;;;;;;7.34;69.78;92862.72;6138936;23;20022;-92
2022/04/14 01:05:34;;;;;;;;;;;;;;;;;;;;;
2022/04/14 01:08:08;;;;;;;46.78;19.15;;;;;;;7.38;69.58;92882.00;6156109;23;20029;-93
2022/04/14 01:10:53;;;;;;;51.45;20.40;;;;;;;7.34;69.79;92875.75;6157669;23;20401;-93
2022/04/14 01:13:24;;;;;;;48.60;20.33;;;;;;;7.60;69.38;92918.28;6156363;23;20017;-92
2022/04/14 01:16:09;;;;;;;52.80;19.73;;;;;;;7.75;69.94;92941.00;6157355;23;20021;-93
2022/04/14 01:19:03;;;;;;;47.75;20.38;;;;;;;7.48;69.75;92906.28;6156327;23;20017;-93
2022/04/14 01:21:43;;;;;;;45.15;19.40;;;;;;;7.36;69.02;92889.28;6134251;23;20014;-94
2022/04/14 01:24:34;;;;;;;43.03;18.92;;;;;;;7.43;69.04;92900.25;6181983;23;20100;-92
2022/04/14 01:27:10;;;;;;;46.75;21.10;;;;;;;7.51;69.20;92913.56;6164123;23;20392;-92
2022/04/14 01:29:41;;;;;;;49.15;20.40;;;;;;;7.54;69.50;92920.06;6137066;23;20040;-92
2022/04/14 01:32:33;;;;;;;49.70;20.90;;;;;;;7.41;69.46;92894.53;6138886;23;20017;-92
2022/04/14 01:35:17;;;;;;;45.83;20.43;;;;;;;7.72;69.40;92943.09;6116796;23;20016;-92
2022/04/14 01:37:53;;;;;;;;;;;;;;;;;;;;;
2022/04/14 01:40:31;;;;;;;47.13;20.63;;;;;;;7.34;69.93;92888.75;6187848;23;20391;-93
2022/04/14 01:43:22;;;;;;;48.38;20.90;;;;;;;7.44;69.77;92892.19;6138107;23;20016;-92
2022/04/14 01:46:08;;;;;;;;;;;;;;;;;;;;;
2022/04/14 01:48:57;;;;;;;52.00;20.08;;;;;;;7.33;69.32;92877.56;6186608;23;20035;-94
2022/04/14 01:51:48;;;;;;;52.33;20.48;;;;;;;7.44;70.04;92894.78;6187239;23;20017;-91
2022/04/14 01:54:46;;;;;;;46.40;19.60;;;;;;;7.28;70.31;92865.31;6189304;23;20041;-92
2022/04/14 01:57:19;;;;;;;45.83;20.15;;;;;;;7.68;70.40;92921.19;6158427;23;20040;-91
2022/04/14 01:59:53;;;;;;;47.63;20.48;;;;;;;7.25;70.32;92855.41;6162212;23;20005;-92
2022/04/14 02:02:26;;;;;;;49.42;20.65;;;;;;;7.29;70.64;92861.69;6161023;23;20056;-91
2022/04/14 02:05:26;;;;;;;47.53;20.92;;;;;;;7.20;70.64;92844.97;6159653;23;20025;-92
2022/04/14 02:08:01;;;;;;;49.28;21.15;;;;;;;7.23;70.55;92857.50;6159650;23;20460;-91
2022/04/14 02:10:41;;;;;;;47.78;20.08;;;;;;;7.22;70.56;92858.53;6161721;23;20467;-92
2022/04/14 02:13:24;;;;;;;48.17;20.05;;;;;;;7.16;70.71;92845.75;6136123;23;20067;-92
2022/04/14 02:16:22;;;;;;;;;;;;;;;;;;;;;
2022/04/14 02:19:18;;;;;;;51.67;20.42;;;;;;;7.30;71.09;92862.47;6186044;23;20092;-92
2022/04/14 02:22:02;;;;;;;53.03;20.77;;;;;;;7.12;71.30;92829.88;6186135;23;20080;-92
2022/04/14 02:24:40;;;;;;;43.72;18.83;;;;;;;7.25;71.33;92854.63;6161867;23;20107;-92
2022/04/14 02:27:12;;;;;;;49.13;21.13;;;;;;;7.05;71.26;92822.28;6160539;23;20033;-92
2022/04/14 02:29:43;;;;;;;47.08;21.67;;;;;;;7.10;71.02;92839.75;6135832;23;20047;-91
2022/04/14 02:32:11;;;;;;;48.08;20.63;;;;;;;7.36;71.34;92881.47;6136537;23;20036;-91
2022/04/14 02:34:46;;;;;;;49.80;20.38;;;;;;;7.33;71.32;92876.78;6136695;23;20016;-92
2022/04/14 02:37:28;;;;;;;;;;;;;;;;;;;;;
2022/04/14 02:40:04;;;;;;;50.55;20.98;;;;;;;7.16;70.91;92864.78;6159526;23;20063;-92
2022/04/14 02:42:54;;;;;;;45.80;20.33;;;;;;;6.98;71.14;92828.75;6140660;23;20088;-91
2022/04/14 02:45:49;;;;;;;52.58;20.95;;;;;;;7.10;71.30;92844.94;6159874;23;20071;-92
2022/04/14 02:48:55;;;;;;;47.63;21.48;;;;;;;7.18;71.20;92854.06;6139699;23;20095;-91
2022/04/14 02:51:41;;;;;;;53.90;21.88;;;;;;;7.00;71.37;92824.09;6159828;23;20020;-92
2022/04/14 02:54:27;;;;;;;;;;;;;;;;;;;;;
2022/04/14 02:57:06;;;;;;;52.80;22.05;;;;;;;6.92;71.60;92822.00;6159083;23;20440;-92
2022/04/14 02:59:57;;;;;;;48.40;20.98;;;;;;;6.91;71.69;92817.81;6185720;23;20089;-92
2022/04/14 03:02:38;;;;;;;;;;;;;;;;;;;;;
2022/04/14 03:05:19;;;;;;;48.92;21.17;;;;;;;6.91;71.93;92829.00;6159279;23;20074;-92
2022/04/14 03:08:13;;;;;;;47.90;21.00;;;;;;;7.09;72.04;92862.41;6134762;23;20523;-92
2022/04/14 03:10:57;;;;;;;;;;;;;;;;;;;;;
2022/04/14 03:13:40;;;;;;;50.78;21.83;;;;;;;7.24;72.50;92882.47;6162423;23;20020;-91
2022/04/14 03:16:25;;;;;;;45.45;20.98;;;;;;;6.93;71.89;92834.72;6137964;23;20017;-92
2022/04/14 03:19:08;;;;;;;;;;;;;;;;;;;;;
2022/04/14 03:21:50;;;;;;;46.53;21.08;;;;;;;6.97;71.92;92841.00;6159164;23;20024;-92
2022/04/14 03:24:38;;;;;;;51.55;23.08;;;;;;;7.01;72.01;92841.28;6109287;23;20021;-91
2022/04/14 03:27:17;;;;;;;46.33;20.75;;;;;;;6.94;71.33;92818.09;6165610;23;20096;-93
2022/04/14 03:29:49;;;;;;;55.08;21.83;;;;;;;6.92;71.54;92816.78;6159458;23;20017;-92
2022/04/14 03:32:25;;;;;;;46.00;20.77;;;;;;;7.08;71.86;92839.22;6157815;23;20017;-92
2022/04/14 03:35:06;;;;;;;;;;;;;;;;;;;;;
2022/04/14 03:37:55;;;;;;;;;;;;;;;;;;;;;
2022/04/14 03:40:45;;;;;;;50.88;21.50;;;;;;;6.94;72.45;92830.31;6185846;23;20028;-92
2022/04/14 03:43:35;;;;;;;;;;;;;;;;;;;;;
2022/04/14 03:46:14;;;;;;;50.75;20.83;;;;;;;6.97;73.24;92835.00;6157751;23;20099;-92
2022/04/14 03:49:00;;;;;;;;;;;;;;;;;;;;;
2022/04/14 03:51:37;;;;;;;50.05;21.15;;;;;;;6.93;72.66;92833.94;6136717;23;20025;-92
2022/04/14 03:54:43;;;;;;;48.47;20.35;;;;;;;6.91;72.22;92828.22;6184053;23;20854;-93
2022/04/14 03:57:36;;;;;;;;;;;;;;;;;;;;;
2022/04/14 04:00:12;;;;;;;47.42;20.55;;;;;;;6.96;72.76;92841.25;6135611;23;20092;-91
2022/04/14 04:03:28;;;;;;;;;;;;;;;;;;;;;
2022/04/14 04:05:46;;;;;;;54.40;21.05;;;;;;;6.88;72.99;92825.09;6159093;23;20048;-92
2022/04/14 04:08:34;;;;;;;54.67;20.23;;;;;;;7.02;72.70;92838.41;6191149;23;20036;-92
2022/04/14 04:11:11;;;;;;;53.38;21.23;;;;;;;6.83;72.66;92806.84;6189345;23;20020;-93
2022/04/14 04:13:48;;;;;;;48.92;20.27;;;;;;;6.88;72.55;92808.69;6140597;23;20043;-91
2022/04/14 04:16:31;;;;;;;52.13;19.95;;;;;;;7.23;72.48;92860.09;6162250;23;20043;-93
2022/04/14 04:19:15;;;;;;;56.38;21.58;;;;;;;6.96;72.23;92825.63;6143077;23;20104;-92
2022/04/14 04:21:42;;;;;;;58.13;22.13;;;;;;;7.03;72.84;92836.59;6116469;23;20031;-92
2022/04/14 04:24:11;;;;;;;43.17;19.02;;;;;;;6.88;72.75;92822.47;6120955;23;20069;-92
2022/04/14 04:26:55;;;;;;;43.28;20.23;;;;;;;7.26;72.48;92890.81;6162689;23;20048;-92
2022/04/14 04:29:58;;;;;;;50.83;19.75;;;;;;;6.94;73.06;92845.94;6157467;23;20093;-92
2022/04/14 04:32:33;;;;;;;43.72;19.35;;;;;;;6.83;73.04;92838.09;6128946;23;20013;-93
2022/04/14 04:35:10;;;;;;;42.60;18.95;;;;;;;6.83;73.59;92840.69;6107598;23;20030;-92
2022/04/14 04:37:56;;;;;;;43.47;19.80;;;;;;;6.71;73.02;92834.91;6101428;23;20092;-92
2022/04/14 04:41:00;;;;;;;;;;;;;;;;;;;;;
2022/04/14 04:43:42;;;;;;;44.47;18.27;;;;;;;7.07;73.43;92906.13;6156306;23;20076;-93
2022/04/14 04:46:42;;;;;;;;;;;;;;;;;;;;;
2022/04/14 04:49:53;;;;;;;46.25;19.20;;;;;;;6.87;74.01;92872.97;6156021;23;20423;-92
2022/04/14 04:52:27;;;;;;;47.47;19.00;;;;;;;6.69;74.09;92852.59;6130287;23;20018;-93
2022/04/14 04:55:16;;;;;;;43.22;18.17;;;;;;;6.82;73.87;92875.56;6156331;23;20387;-92
2022/04/14 04:57:59;;;;;;;;;;;;;;;;;;;;;
2022/04/14 05:00:38;;;;;;;44.90;18.90;;;;;;;6.79;73.00;92854.44;6134466;23;20024;-92
2022/04/14 05:06:27;;;;;;;43.95;18.35;;;;;;;6.81;72.68;92850.56;6151870;23;20017;-89
2022/04/14 05:09:17;;;;;;;44.42;19.05;;;;;;;6.95;72.76;92863.88;6106494;23;20022;-88
2022/04/14 05:11:46;;;;;;;42.42;17.40;;;;;;;7.18;72.77;92880.91;6137732;23;20017;-89
2022/04/14 05:14:19;;;;;;;36.53;16.30;;;;;;;7.22;73.20;92879.34;6104666;23;20045;-88
2022/04/14 05:17:08;;;;;;;33.78;16.45;;;;;;;7.13;72.75;92862.66;6156743;23;20108;-89
2022/04/14 05:19:38;;;;;;;35.35;15.65;;;;;;;7.23;72.23;92867.91;6158042;23;20001;-89
2022/04/14 05:22:21;;;;;;;37.38;16.83;;;;;;;7.38;71.95;92866.38;6097240;23;20017;-92
2022/04/14 05:24:52;;;;;;;45.47;18.38;;;;;;;7.68;71.61;92897.72;6150682;23;20008;-93
2022/04/14 05:27:25;;;;;;;41.95;17.92;;;;;;;7.57;70.80;92862.28;6156984;23;20005;-92
2022/04/14 05:29:53;;;;;;;44.72;18.55;;;;;;;7.76;70.81;92886.00;6156928;23;20026;-92
2022/04/14 05:32:21;;;;;;;40.30;18.15;;;;;;;8.08;70.24;92914.47;6156192;23;20006;-93
2022/04/14 05:34:58;;;;;;;45.70;18.23;;;;;;;8.33;69.56;92931.16;6154311;23;20011;-88
2022/04/14 05:37:36;;;;;;;41.97;18.35;;;;;;;8.09;68.97;92873.53;6126623;23;20021;-90
2022/04/14 05:40:44;;;;;;;46.33;17.70;;;;;;;8.40;68.57;92895.19;6142313;23;20026;-90
2022/04/14 05:43:21;;;;;;;44.40;17.80;;;;;;;8.57;67.77;92888.91;6153436;23;20013;-89
2022/04/14 05:45:53;;;;;;;46.17;19.13;;;;;;;8.67;67.47;92883.66;6154362;23;20484;-90
2022/04/14 05:48:30;;;;;;;43.72;18.67;;;;;;;8.72;66.86;92868.00;6151824;23;20524;-88
2022/04/14 05:51:15;;;;;;;48.05;19.55;;;;;;;9.38;66.70;92930.47;6152406;23;20075;-89
2022/04/14 05:53:49;;;;;;;40.72;18.33;;;;;;;9.36;65.74;92893.38;6150059;23;20437;-89
2022/04/14 05:56:24;;;;;;;51.47;19.55;;;;;;;9.37;65.08;92865.44;6153361;23;20014;-90
2022/04/14 05:59:07;;;;;;;;;;;;;;;;;;;;;
2022/04/14 06:01:41;;;;;;;45.53;18.50;;;;;;;10.05;63.61;92882.28;6153458;23;20358;-90
2022/04/14 06:07:18;;;;;;;41.72;16.48;;;;;;;10.60;61.79;92864.59;6139101;23;20021;-90
2022/04/14 06:09:47;;;;;;;40.20;16.08;;;;;;;10.99;60.80;92882.81;6155065;23;20014;-90
2022/04/14 06:12:17;;;;;;;47.53;16.35;;;;;;;11.20;59.45;92872.88;6154563;23;20006;-89
2022/04/14 06:15:05;;;;;;;33.42;15.50;;;;;;;11.61;59.27;92877.59;6154083;23;20084;-91
2022/04/14 06:17:47;;;;;;;39.78;13.77;;;;;;;12.19;56.29;92908.06;6154299;23;20446;-89
2022/04/14 06:20:26;;;;;;;34.13;14.38;;;;;;;13.29;54.49;92902.31;6155544;23;20453;-89
2022/04/14 06:23:10;;;;;;;31.02;14.13;;;;;;;15.55;47.34;92886.53;6154892;23;20017;-92
2022/04/14 06:25:38;;;;;;;34.35;14.65;;;;;;;18.00;40.74;92859.31;6152501;23;20040;-89
2022/04/14 06:28:09;;;;;;;35.88;15.48;;;;;;;18.23;39.28;92865.06;6153093;23;20013;-91
2022/04/14 06:30:39;;;;;;;36.38;15.65;;;;;;;19.89;37.02;92865.97;6153586;23;20069;-90
2022/04/14 06:33:25;;;;;;;34.95;15.32;;;;;;;21.86;33.09;92862.31;6155890;23;20032;-91
2022/04/14 06:36:05;;;;;;;34.92;15.82;;;;;;;22.86;32.12;92909.75;6154175;23;20425;-92
2022/04/14 06:38:46;;;;;;;33.10;15.52;;;;;;;23.85;29.60;92858.44;6155021;23;20092;-90
2022/04/14 06:41:14;;;;;;;39.85;15.75;;;;;;;24.47;28.77;92866.09;6153923;23;20024;-90
2022/04/14 06:43:49;;;;;;;35.03;15.68;;;;;;;25.52;28.33;92869.53;6133232;23;20439;-91
2022/04/14 06:46:35;;;;;;;38.53;18.25;;;;;;;25.32;27.71;92905.72;6171027;23;20021;-90
2022/04/14 06:49:03;;;;;;;36.50;16.67;;;;;;;26.80;25.48;92849.25;6169601;23;20018;-92
2022/04/14 06:51:50;;;;;;;41.03;18.75;;;;;;;27.57;24.63;92846.31;6147019;23;20452;-90
2022/04/14 06:54:30;;;;;;;39.35;18.15;;;;;;;28.60;23.57;92860.78;6147771;23;20017;-92
2022/04/14 06:56:59;;;;;;;34.17;17.35;;;;;;;29.11;22.96;92858.63;6165890;23;20325;-91
2022/04/14 06:59:29;;;;;;;34.72;16.42;;;;;;;29.41;22.48;92872.31;6153233;23;20005;-91
2022/04/14 07:02:08;;;;;;;40.17;16.90;;;;;;;28.73;22.23;92880.75;6129481;23;20017;-90
2022/04/14 07:04:36;;;;;;;35.20;16.33;;;;;;;25.49;25.94;92850.75;6153382;23;20013;-90
2022/04/14 07:07:12;;;;;;;31.90;15.88;;;;;;;23.77;28.20;92872.81;6153573;23;20084;-90
2022/04/14 07:09:47;;;;;;;29.35;15.48;;;;;;;21.05;32.81;92889.28;6105673;23;20358;-91
2022/04/14 07:12:23;;;;;;;40.25;17.70;;;;;;;19.12;35.73;92838.19;6107300;23;20037;-89
2022/04/14 07:15:07;;;;;;;;;;;;;;;;;;;;;
2022/04/14 07:18:26;;;;;;;;;;;;;;;;;;;;;
2022/04/14 07:21:05;;;;;;;35.60;16.38;;;;;;;18.41;38.33;92847.16;6152324;23;20033;-90
2022/04/14 07:23:43;;;;;;;;;;;;;;;;;;;;;
2022/04/14 07:26:17;;;;;;;33.70;16.57;;;;;;;17.48;39.77;92859.63;6154523;23;20527;-90
2022/04/14 07:28:47;;;;;;;35.05;16.35;;;;;;;17.19;40.68;92871.72;6128487;23;20019;-90
2022/04/14 07:31:24;;;;;;;40.50;17.45;;;;;;;17.34;42.33;92898.75;6154315;23;20009;-90
2022/04/14 07:33:58;;;;;;;37.67;17.73;;;;;;;16.07;44.77;92914.91;6128938;23;20009;-90
2022/04/14 07:36:30;;;;;;;43.00;18.92;;;;;;;15.76;45.27;92852.44;6154019;23;20009;-90
2022/04/14 07:39:01;;;;;;;37.00;17.90;;;;;;;15.05;46.98;92855.19;6104417;23;20017;-89
2022/04/14 07:41:54;;;;;;;44.67;18.15;;;;;;;16.23;45.30;92863.97;6128468;23;20041;-90
2022/04/14 07:44:28;;;;;;;41.00;17.77;;;;;;;16.23;44.07;92847.34;6132955;23;20418;-90
2022/04/14 07:47:00;;;;;;;36.78;16.92;;;;;;;16.08;44.55;92847.84;6154221;23;20017;-91
2022/04/14 07:49:56;;;;;;;44.15;18.55;;;;;;;16.07;45.30;92920.19;6154308;23;20089;-91
2022/04/14 07:52:22;;;;;;;41.13;17.33;;;;;;;16.40;44.20;92868.47;6132443;23;20022;-91
2022/04/14 07:55:17;;;;;;;;;;;;;;;;;;;;;
2022/04/14 07:58:03;;;;;;;;;;;;;;;;;;;;;
2022/04/14 08:00:40;;;;;;;36.25;15.52;;;;;;;15.97;45.20;92856.06;6154069;23;20094;-90
2022/04/14 08:03:21;;;;;;;;;;;;;;;;;;;;;
2022/04/14 08:06:35;;;;;;;;;;;;;;;;;;;;;
2022/04/14 08:09:58;;;;;;;39.50;17.95;;;;;;;16.07;46.18;92865.53;6131807;23;20029;-96
2022/04/14 08:13:10;;;;;;;37.80;17.15;;;;;;;15.68;45.24;92843.41;6118490;23;20080;-96
2022/04/14 08:16:31;;;;;;;;;;;;;;;;;;;;;
2022/04/14 08:22:23;;;;;;;44.60;17.35;;;;;;;15.75;46.41;92901.81;6179488;23;20005;-94
2022/04/14 08:25:21;;;;;;;43.08;17.15;;;;;;;16.02;43.93;92852.47;6145818;23;20009;-94
2022/04/14 08:28:21;;;;;;;39.17;16.85;;;;;;;16.40;43.72;92910.75;6160233;23;20030;-96
2022/04/14 08:30:56;;;;;;;34.45;16.02;;;;;;;15.73;44.32;92853.06;6158662;23;20005;-95
2022/04/14 08:33:40;;;;;;;36.47;17.02;;;;;;;16.18;45.02;92866.75;6183257;23;20009;-94
2022/04/14 08:36:40;;;;;;;;;;;;;;;;;;;;;
2022/04/14 08:39:38;;;;;;;38.65;16.08;;;;;;;16.23;43.82;92868.47;6164294;23;20001;-94
2022/04/14 08:45:26;;;;;;;36.25;15.68;;;;;;;16.15;44.75;92924.72;6153417;23;20052;-96
2022/04/14 08:51:00;;;;;;;;;;;;;;;16.32;45.04;92926.59;6140290;23;20329;-96
2022/04/14 08:53:46;;;;;;;31.30;13.80;;;;;;;16.62;42.63;92922.25;6112935;23;20323;-95
2022/04/14 08:56:48;;;;;;;;;;;;;;;;;;;;;
2022/04/14 08:59:37;;;;;;;47.28;16.02;;;;;;;16.30;43.84;92889.94;6182608;23;20001;-95
2022/04/14 09:02:49;;;;;;;41.30;16.45;;;;;;;16.38;43.31;92883.84;6182962;23;20021;-95
2022/04/14 09:05:38;;;;;;;;;;;;;;;;;;;;;
2022/04/14 09:11:47;;;;;;;39.88;15.43;;;;;;;16.41;43.30;92864.75;6139774;23;20041;-96
2022/04/14 09:14:34;;;;;;;38.92;14.32;;;;;;;16.12;44.14;92891.00;6157371;23;20088;-95
2022/04/14 09:17:32;;;;;;;;;;;;;;;;;;;;;
2022/04/14 09:23:36;;;;;;;32.85;11.93;;;;;;;16.82;41.22;92920.84;6158510;23;20020;-95
2022/04/14 09:26:13;;;;;;;39.05;14.52;;;;;;;16.98;42.22;92923.78;6133982;23;20040;-95
2022/04/14 09:29:13;;;;;;;33.85;13.90;;;;;;;17.21;41.51;92879.34;6135060;23;20009;-95
2022/04/14 09:31:54;;;;;;;35.80;12.60;;;;;;;16.89;41.39;92893.91;6136074;23;20009;-95
2022/04/14 09:35:04;;;;;;;;;;;;;;;;;;;;;
2022/04/14 09:40:56;;;;;;;41.92;14.65;;;;;;;16.40;41.79;92868.47;6140757;23;20452;-95
2022/04/14 09:43:47;;;;;;;;;;;;;;;;;;;;;
2022/04/14 09:46:33;;;;;;;39.03;15.13;;;;;;;17.20;41.16;92857.44;6156733;23;20012;-96
2022/04/14 09:49:27;;;;;;;47.08;15.57;;;;;;;17.52;41.54;92897.59;6134681;23;20084;-90
2022/04/14 09:51:58;;;;;;;38.65;14.60;;;;;;;17.32;42.11;92863.91;6130787;23;20010;-90
2022/04/14 09:54:39;;;;;;;34.28;12.40;;;;;;;17.06;40.48;92857.59;6154684;23;20009;-90
2022/04/14 09:57:18;;;;;;;30.75;12.38;;;;;;;17.53;40.14;92895.72;6154801;23;20417;-91
2022/04/14 09:59:49;;;;;;;29.88;11.90;;;;;;;17.25;40.80;92859.13;6129481;23;20021;-90
2022/04/14 10:02:37;;;;;;;39.38;12.50;;;;;;;16.99;40.99;92898.88;6153516;23;20005;-91
2022/04/14 10:05:06;;;;;;;38.17;11.02;;;;;;;17.15;41.80;92877.97;6106575;23;20013;-91
2022/04/14 10:07:36;;;;;;;30.95;11.57;;;;;;;16.31;41.19;92853.72;6128760;23;20016;-91
2022/04/14 10:10:24;;;;;;;30.08;10.57;;;;;;;17.08;40.61;92852.00;6154869;23;20077;-92
2022/04/14 10:13:38;;;;;;;32.58;11.00;;;;;;;17.37;39.25;92890.19;6152670;23;20029;-91
2022/04/14 10:16:09;;;;;;;28.38;10.63;;;;;;;17.31;39.70;92894.88;6092234;23;20084;-92
2022/04/14 10:18:50;;;;;;;32.38;11.13;;;;;;;17.28;39.31;92896.28;6153516;23;20006;-92
2022/04/14 10:21:34;;;;;;;27.48;10.13;;;;;;;17.60;38.74;92872.94;6089218;23;20102;-92
2022/04/14 10:24:05;;;;;;;31.20;9.88;;;;;;;16.68;39.10;92854.91;6156862;23;20009;-91
2022/04/14 10:26:48;;;;;;;28.40;9.35;;;;;;;16.97;37.89;92822.50;6158030;23;20013;-91
2022/04/14 10:29:27;;;;;;;22.33;7.10;;;;;;;17.25;37.50;92841.38;6184161;23;20009;-92
2022/04/14 10:32:17;;;;;;;23.60;8.57;;;;;;;17.60;36.65;92830.59;6158054;23;20001;-92
2022/04/14 10:34:55;;;;;;;24.40;9.10;;;;;;;17.76;37.53;92845.91;6157359;23;20115;-91
2022/04/14 10:37:44;;;;;;;;;;;;;;;;;;;;;
2022/04/14 10:40:37;;;;;;;25.88;8.93;;;;;;;17.60;36.02;92854.41;6158384;23;20372;-91
2022/04/14 10:43:15;;;;;;;23.63;8.40;;;;;;;18.09;36.56;92841.50;6133925;23;20020;-92
2022/04/14 10:46:29;;;;;;;25.52;8.00;;;;;;;18.15;37.08;92851.88;6137728;23;20094;-91
2022/04/14 10:49:36;;;;;;;;;;;;;;;;;;;;;
2022/04/14 10:52:36;;;;;;;21.65;7.20;;;;;;;18.79;35.25;92867.41;6183829;23;20092;-92
2022/04/14 10:55:13;;;;;;;23.27;7.10;;;;;;;18.72;34.22;92846.69;6133472;23;20028;-93
2022/04/14 10:58:00;;;;;;;;;;;;;;;;;;;;;
2022/04/14 11:01:18;;;;;;;24.20;7.18;;;;;;;18.73;36.28;92876.63;6159240;23;20443;-91
2022/04/14 11:04:56;;;;;;;20.23;6.60;;;;;;;18.85;33.58;92852.06;6163900;23;20040;-90
2022/04/14 11:07:32;;;;;;;28.77;7.90;;;;;;;18.50;34.86;92820.56;6158011;23;20011;-93
2022/04/14 11:10:03;;;;;;;21.75;7.07;;;;;;;18.28;34.55;92816.41;6135086;23;20019;-93
2022/04/14 11:12:53;;;;;;;;;;;;;;;;;;;;;
2022/04/14 11:15:41;;;;;;;21.52;7.47;;;;;;;18.66;34.75;92849.88;6157769;23;20100;-93
2022/04/14 11:18:19;;;;;;;;;;;;;;;;;;;;;
2022/04/14 11:20:59;;;;;;;26.77;6.93;;;;;;;18.40;33.73;92807.75;6183592;23;20012;-93
2022/04/14 11:23:26;;;;;;;20.67;7.10;;;;;;;18.44;34.80;92830.63;6133317;23;20071;-92
2022/04/14 11:26:45;;;;;;;22.25;7.20;;;;;;;18.63;33.40;92819.50;6160184;23;20084;-92
2022/04/14 11:29:34;;;;;;;22.23;7.30;;;;;;;18.95;33.82;92829.66;6134613;23;20045;-92
2022/04/14 11:32:18;;;;;;;23.15;7.20;;;;;;;18.67;34.67;92801.06;6183857;23;20004;-92
2022/04/14 11:35:25;;;;;;;;;;;;;;;;;;;;;
2022/04/14 11:38:04;;;;;;;24.05;7.82;;;;;;;18.90;34.14;92849.97;6184636;23;20563;-91
2022/04/14 11:40:44;;;;;;;23.88;6.53;;;;;;;18.17;33.85;92807.31;6160882;23;20009;-92
2022/04/14 11:43:23;;;;;;;30.27;7.40;;;;;;;18.01;33.72;92807.91;6135825;23;20425;-91
2022/04/14 11:46:22;;;;;;;;;;;;;;;;;;;;;
2022/04/14 11:48:49;;;;;;;24.30;7.35;;;;;;;19.08;32.11;92808.09;6156911;23;20334;-90
2022/04/14 11:51:30;;;;;;;18.95;6.07;;;;;;;18.98;33.65;92805.91;6183969;23;20480;-92
2022/04/14 11:54:05;;;;;;;20.30;5.60;;;;;;;19.09;31.07;92808.88;6157862;23;20048;-91
2022/04/14 11:56:41;;;;;;;17.83;5.13;;;;;;;19.79;30.57;92855.78;6133537;23;20005;-90
2022/04/14 11:59:21;;;;;;;20.30;5.38;;;;;;;20.04;29.89;92836.06;6157694;23;20040;-91
2022/04/14 12:02:14;;;;;;;22.63;7.35;;;;;;;19.93;31.23;92800.44;6161494;23;20021;-92
2022/04/14 12:33:27;;;;;;;21.20;6.70;;;;;;;19.80;32.86;92839.53;5171467;27;20308;-78
2022/04/14 12:36:06;;;;;;;19.40;7.25;;;;;;;20.13;31.12;92847.31;5150700;27;20043;-78
2022/04/14 12:38:42;;;;;;;20.15;7.00;;;;;;;19.60;32.20;92838.53;5133405;27;20046;-77
2022/04/14 12:41:12;;;;;;;25.88;7.85;;;;;;;19.74;33.18;92832.88;5142115;27;20035;-77
2022/04/14 12:43:41;;;;;;;24.90;8.93;;;;;;;20.18;31.36;92835.69;5129133;28;20150;-77
2022/04/14 12:46:30;;;;;;;21.15;7.70;;;;;;;20.34;31.88;92833.06;5128920;28;20069;-77
2022/04/14 12:49:00;;;;;;;22.63;8.13;;;;;;;20.28;31.50;92834.41;5111365;28;20469;-77
2022/04/14 12:51:28;;;;;;;20.80;7.47;;;;;;;20.10;31.88;92839.22;5110688;28;20031;-77
2022/04/14 12:53:54;;;;;;;22.88;7.07;;;;;;;19.91;31.61;92842.50;5124148;28;20047;-77
2022/04/14 12:56:19;;;;;;;19.75;6.65;;;;;;;20.09;32.05;92843.78;5115491;28;20028;-77
2022/04/14 12:59:15;;;;;;;23.27;8.00;;;;;;;20.16;31.48;92830.69;5104113;28;20040;-77
2022/04/14 13:02:07;;;;;;;24.05;7.40;;;;;;;20.17;31.23;92834.13;5108239;28;20040;-77
2022/04/14 13:04:37;;;;;;;23.23;8.20;;;;;;;19.94;31.85;92831.19;5128542;28;20043;-77
2022/04/14 13:07:09;;;;;;;19.55;7.28;;;;;;;20.20;31.00;92838.78;5128874;28;20053;-77
2022/04/14 13:09:40;;;;;;;20.27;7.53;;;;;;;20.56;31.01;92824.59;5129182;28;20043;-76
2022/04/14 13:12:08;;;;;;;22.05;7.15;;;;;;;20.59;31.04;92823.91;5128385;28;20429;-77
2022/04/14 13:14:44;;;;;;;22.67;8.35;;;;;;;19.80;31.63;92830.78;5127226;28;20019;-77
2022/04/14 13:17:10;;;;;;;22.13;8.40;;;;;;;19.95;30.02;92822.91;5110484;28;20030;-76
2022/04/14 13:19:36;;;;;;;22.23;7.93;;;;;;;20.30;31.29;92821.56;5110801;28;20023;-77
2022/04/14 13:22:02;;;;;;;23.85;7.53;;;;;;;20.15;30.16;92823.03;5128231;28;20035;-77
2022/04/14 13:24:28;;;;;;;19.92;7.85;;;;;;;20.29;30.20;92818.16;5128181;28;20032;-77
2022/04/14 13:26:55;;;;;;;23.63;8.35;;;;;;;20.13;30.96;92817.31;5128327;28;20422;-77
2022/04/14 13:29:21;;;;;;;21.42;7.70;;;;;;;20.17;31.49;92824.28;5128557;28;20480;-76
2022/04/14 13:31:51;;;;;;;22.75;7.80;;;;;;;20.36;30.53;92822.88;5109747;28;20412;-77
2022/04/14 13:34:17;;;;;;;33.15;7.78;;;;;;;20.16;30.62;92813.97;5109709;28;20100;-77
2022/04/14 13:36:43;;;;;;;26.45;8.18;;;;;;;20.65;29.33;92815.66;5105121;28;20055;-77
2022/04/14 13:39:09;;;;;;;29.13;8.70;;;;;;;20.32;30.08;92817.47;5128089;28;20039;-77
2022/04/14 13:41:39;;;;;;;29.35;8.63;;;;;;;19.99;30.42;92817.66;5128078;27;20114;-77
2022/04/14 13:44:04;;;;;;;22.92;8.13;;;;;;;20.22;29.96;92831.25;5118257;28;20041;-77
2022/04/14 13:46:30;;;;;;;22.77;8.02;;;;;;;20.44;30.53;92821.19;5096133;28;20031;-77
2022/04/14 13:48:56;;;;;;;28.60;8.60;;;;;;;20.58;29.79;92821.59;5079553;28;20063;-77
2022/04/14 13:51:22;;;;;;;24.92;6.90;;;;;;;20.14;29.53;92814.31;5095813;28;20047;-77
2022/04/14 13:53:48;;;;;;;23.05;6.93;;;;;;;20.26;29.60;92818.03;5097192;28;20366;-77
2022/04/14 13:56:14;;;;;;;18.20;7.22;;;;;;;20.42;30.02;92815.41;5102246;28;20035;-77
2022/04/14 13:58:40;;;;;;;22.50;7.30;;;;;;;20.33;29.22;92820.88;5114259;28;20039;-77
2022/04/14 14:01:07;;;;;;;26.35;8.00;;;;;;;20.05;29.62;92816.34;5113980;28;20039;-77
2022/04/14 14:03:33;;;;;;;20.77;7.05;;;;;;;20.52;28.73;92806.97;5114300;28;20069;-77
2022/04/14 14:06:00;;;;;;;21.35;8.18;;;;;;;19.75;29.09;92808.66;5110833;28;20120;-76
2022/04/14 14:08:27;;;;;;;23.67;8.32;;;;;;;19.54;29.35;92807.97;5097751;28;20035;-76
2022/04/14 14:10:53;;;;;;;24.73;7.85;;;;;;;19.78;29.36;92801.91;5113651;28;20362;-77
2022/04/14 14:13:19;;;;;;;24.83;7.63;;;;;;;20.06;29.43;92796.63;5113402;28;20500;-77
2022/04/14 14:15:45;;;;;;;22.85;7.63;;;;;;;20.22;28.97;92803.88;5107634;28;20081;-77
2022/04/14 14:18:11;;;;;;;25.35;7.40;;;;;;;19.97;29.39;92809.25;5095198;28;20385;-77
2022/04/14 14:20:38;;;;;;;25.83;7.30;;;;;;;20.25;28.54;92813.84;5113267;28;20461;-77
2022/04/14 14:23:03;;;;;;;27.30;8.50;;;;;;;19.88;29.22;92806.75;5114138;28;20228;-77
2022/04/14 14:25:31;;;;;;;29.17;8.35;;;;;;;19.86;28.89;92814.28;5095454;28;20358;-77
2022/04/14 14:27:56;;;;;;;20.95;7.63;;;;;;;20.04;27.96;92814.78;5095680;28;20043;-76